Terminal Aerodrome Forecast
Issued by NWS

Home | Current Version | Previous Version | Text Only | Print | Product List | Glossary On
Versions: 1 2 3 4 5 6 7 8 9 10 11 12
000
FTAK31 PANC 232340
TAFAAQ
TAF
PAAQ 232340Z 2400/2424 14012KT P6SM FEW070 BKN200
     FM240600 13007KT P6SM SCT060
     FM241200 VRB04KT P6SM SCT020 BKN060
     FM241900 13007KT P6SM SCT060 BKN090=

USA.gov is the U.S. government's official web portal to all federal, state and local government web resources and services.